createdAt,value
2018-02-03T00:00:49.713Z,998.42
2018-02-03T00:01:49.663Z,998.40
2018-02-03T00:02:49.613Z,998.37
2018-02-03T00:03:49.561Z,998.34
2018-02-03T00:04:49.512Z,998.35
2018-02-03T00:05:49.462Z,998.30
2018-02-03T00:06:49.414Z,998.36
2018-02-03T00:07:49.361Z,998.37
2018-02-03T00:08:49.311Z,998.35
2018-02-03T00:09:49.261Z,998.34
2018-02-03T00:10:49.210Z,998.31
2018-02-03T00:11:49.161Z,998.32
2018-02-03T00:12:49.113Z,998.31
2018-02-03T00:13:49.060Z,998.31
2018-02-03T00:14:49.010Z,998.29
2018-02-03T00:15:48.959Z,998.26
2018-02-03T00:16:48.909Z,998.32
2018-02-03T00:17:48.859Z,998.31
2018-02-03T00:18:48.810Z,998.26
2018-02-03T00:19:48.758Z,998.28
2018-02-03T00:20:48.708Z,998.24
2018-02-03T00:21:48.659Z,998.22
2018-02-03T00:22:48.609Z,998.26
2018-02-03T00:23:48.566Z,998.24
2018-02-03T00:24:48.508Z,998.25
2018-02-03T00:25:48.459Z,998.25
2018-02-03T00:26:48.408Z,998.23
2018-02-03T00:27:48.360Z,998.27
2018-02-03T00:28:48.308Z,998.25
2018-02-03T00:29:48.258Z,998.26
2018-02-03T00:30:48.211Z,998.26
2018-02-03T00:31:48.158Z,998.23
2018-02-03T00:32:48.116Z,998.27
2018-02-03T00:33:48.057Z,998.29
2018-02-03T00:34:48.008Z,998.27
2018-02-03T00:35:47.957Z,998.27
2018-02-03T00:36:47.908Z,998.28
2018-02-03T00:37:47.858Z,998.26
2018-02-03T00:38:47.808Z,998.25
2018-02-03T00:39:47.758Z,998.25
2018-02-03T00:40:47.707Z,998.24
2018-02-03T00:41:47.658Z,998.25
2018-02-03T00:42:47.609Z,998.29
2018-02-03T00:43:47.557Z,998.33
2018-02-03T00:44:47.507Z,998.31
2018-02-03T00:45:47.457Z,998.33
2018-02-03T00:46:47.408Z,998.32
2018-02-03T00:47:47.357Z,998.32
2018-02-03T00:48:47.307Z,998.29
2018-02-03T00:49:47.257Z,998.35
2018-02-03T00:50:47.207Z,998.35
2018-02-03T00:51:47.156Z,998.36
2018-02-03T00:52:47.107Z,998.37
2018-02-03T00:53:47.057Z,998.36
2018-02-03T00:54:47.007Z,998.39
2018-02-03T00:55:46.955Z,998.34
2018-02-03T00:56:46.906Z,998.36
2018-02-03T00:57:46.856Z,998.35
2018-02-03T00:58:46.813Z,998.30
2018-02-03T00:59:46.755Z,998.39
2018-02-03T01:00:46.705Z,998.35
2018-02-03T01:01:46.654Z,998.34
2018-02-03T01:02:46.605Z,998.32
2018-02-03T01:03:46.554Z,998.32
2018-02-03T01:04:46.653Z,998.32
2018-02-03T01:05:46.454Z,998.28
2018-02-03T01:06:46.404Z,998.28
2018-02-03T01:07:46.352Z,998.26
2018-02-03T01:08:46.302Z,998.29
2018-02-03T01:09:46.252Z,998.28
2018-02-03T01:10:46.202Z,998.28
2018-02-03T01:11:46.151Z,998.30
2018-02-03T01:12:46.204Z,998.29
2018-02-03T01:13:46.051Z,998.25
2018-02-03T01:14:46.001Z,998.27
2018-02-03T01:15:45.950Z,998.26
2018-02-03T01:16:45.899Z,998.24
2018-02-03T01:17:45.850Z,998.25
2018-02-03T01:18:45.800Z,998.23
2018-02-03T01:19:45.749Z,998.29
2018-02-03T01:20:45.699Z,998.22
2018-02-03T01:21:45.649Z,998.22
2018-02-03T01:22:45.598Z,998.23
2018-02-03T01:23:45.548Z,998.22
2018-02-03T01:24:45.498Z,998.21
2018-02-03T01:25:45.448Z,998.20
2018-02-03T01:26:45.398Z,998.23
2018-02-03T01:27:45.348Z,998.22
2018-02-03T01:28:45.297Z,998.18
2018-02-03T01:29:45.247Z,998.22
2018-02-03T01:30:45.197Z,998.23
2018-02-03T01:31:45.148Z,998.22
2018-02-03T01:32:45.096Z,998.23
2018-02-03T01:33:45.047Z,998.28
2018-02-03T01:34:44.997Z,998.23
2018-02-03T01:35:44.946Z,998.20
2018-02-03T01:36:44.899Z,998.23
2018-02-03T01:37:44.846Z,998.16
2018-02-03T01:38:44.797Z,998.18
2018-02-03T01:39:44.745Z,998.17
2018-02-03T01:40:44.695Z,998.15
2018-02-03T01:41:44.650Z,998.16
2018-02-03T01:42:44.595Z,998.18
2018-02-03T01:43:44.544Z,998.15
2018-02-03T01:44:44.494Z,998.15
2018-02-03T01:45:44.444Z,998.10
2018-02-03T01:46:44.394Z,998.11
2018-02-03T01:47:44.343Z,998.10
2018-02-03T01:48:44.293Z,998.14
2018-02-03T01:49:44.244Z,998.15
2018-02-03T01:50:44.198Z,998.17
2018-02-03T01:51:44.143Z,998.14
2018-02-03T01:52:44.093Z,998.13
2018-02-03T01:53:44.043Z,998.12
2018-02-03T01:54:43.993Z,998.16
2018-02-03T01:55:43.942Z,998.15
2018-02-03T01:56:43.893Z,998.15
2018-02-03T01:57:43.842Z,998.17
2018-02-03T01:58:43.793Z,998.15
2018-02-03T01:59:43.744Z,998.10
2018-02-03T02:00:43.691Z,998.12
2018-02-03T02:01:43.642Z,998.11
2018-02-03T02:02:43.592Z,998.16
2018-02-03T02:03:43.540Z,998.18
2018-02-03T02:04:43.495Z,998.12
2018-02-03T02:05:43.441Z,998.11
2018-02-03T02:06:43.391Z,998.12
2018-02-03T02:07:43.340Z,998.12
2018-02-03T02:08:43.290Z,998.14
2018-02-03T02:09:43.241Z,998.10
2018-02-03T02:10:43.190Z,998.10
2018-02-03T02:11:43.139Z,998.14
2018-02-03T02:12:43.090Z,998.12
2018-02-03T02:13:43.490Z,998.11
2018-02-03T02:14:43.390Z,998.10
2018-02-03T02:15:43.289Z,998.10
2018-02-03T02:16:43.290Z,998.09
2018-02-03T02:17:43.189Z,998.08
2018-02-03T02:18:43.089Z,998.09
2018-02-03T02:19:42.988Z,998.08
2018-02-03T02:20:42.839Z,998.06
2018-02-03T02:21:42.839Z,998.05
2018-02-03T02:22:42.789Z,998.04
2018-02-03T02:23:42.638Z,998.05
2018-02-03T02:24:42.538Z,998.06
2018-02-03T02:25:42.439Z,998.07
2018-02-03T02:26:42.439Z,998.06
2018-02-03T02:27:42.338Z,998.06
2018-02-03T02:28:42.288Z,998.05
2018-02-03T02:29:42.239Z,998.05
2018-02-03T02:30:42.189Z,998.04
2018-02-03T02:31:42.138Z,998.05
2018-02-03T02:32:42.089Z,998.05
2018-02-03T02:33:42.039Z,998.08
2018-02-03T02:34:42.394Z,998.06
2018-02-03T02:35:41.938Z,998.01
2018-02-03T02:36:41.888Z,998.04
2018-02-03T02:37:41.839Z,998.02
2018-02-03T02:38:41.789Z,998.03
2018-02-03T02:39:41.748Z,998.02
2018-02-03T02:40:41.688Z,998.04
2018-02-03T02:41:41.638Z,998.02
2018-02-03T02:42:41.592Z,998.01
2018-02-03T02:43:41.540Z,998.01
2018-02-03T02:44:41.488Z,998.04
2018-02-03T02:45:41.438Z,997.98
2018-02-03T02:46:41.388Z,997.98
2018-02-03T02:47:41.340Z,997.99
2018-02-03T02:48:41.289Z,998.00
2018-02-03T02:49:41.241Z,997.99
2018-02-03T02:50:41.189Z,998.00
2018-02-03T02:51:41.140Z,998.03
2018-02-03T02:52:41.088Z,997.97
2018-02-03T02:53:41.039Z,997.99
2018-02-03T02:54:40.989Z,997.96
2018-02-03T02:55:40.938Z,997.99
2018-02-03T02:56:40.889Z,997.99
2018-02-03T02:57:40.840Z,997.96
2018-02-03T02:58:40.789Z,997.98
2018-02-03T02:59:40.739Z,997.99
2018-02-03T03:00:40.689Z,997.93
2018-02-03T03:01:40.638Z,997.90
2018-02-03T03:02:40.639Z,997.90
2018-02-03T03:03:40.538Z,997.89
2018-02-03T03:04:40.489Z,997.88
2018-02-03T03:05:40.439Z,997.86
2018-02-03T03:06:40.389Z,997.87
2018-02-03T03:07:40.338Z,997.86
2018-02-03T03:08:40.290Z,997.82
2018-02-03T03:09:40.239Z,997.84
2018-02-03T03:10:40.189Z,997.83
2018-02-03T03:11:40.138Z,997.80
2018-02-03T03:12:40.088Z,997.84
2018-02-03T03:13:40.038Z,997.82
2018-02-03T03:14:39.988Z,997.80
2018-02-03T03:15:39.937Z,997.83
2018-02-03T03:16:39.888Z,997.82
2018-02-03T03:17:39.838Z,997.81
2018-02-03T03:18:39.792Z,997.77
2018-02-03T03:19:39.737Z,997.75
2018-02-03T03:20:39.694Z,997.77
2018-02-03T03:21:39.637Z,997.80
2018-02-03T03:22:39.587Z,997.78
2018-02-03T03:23:39.537Z,997.79
2018-02-03T03:24:39.487Z,997.78
2018-02-03T03:25:39.687Z,997.80
2018-02-03T03:26:39.387Z,997.79
2018-02-03T03:27:39.336Z,997.82
2018-02-03T03:28:39.287Z,997.84
2018-02-03T03:29:39.236Z,997.83
2018-02-03T03:30:39.187Z,997.87
2018-02-03T03:31:39.337Z,997.83
2018-02-03T03:32:39.088Z,997.83
2018-02-03T03:33:39.035Z,997.84
2018-02-03T03:34:38.989Z,997.82
2018-02-03T03:35:38.935Z,997.84
2018-02-03T03:36:38.885Z,997.83
2018-02-03T03:37:38.840Z,997.86
2018-02-03T03:38:38.784Z,997.86
2018-02-03T03:39:38.734Z,997.87
2018-02-03T03:40:38.685Z,997.82
2018-02-03T03:41:38.635Z,997.90
2018-02-03T03:42:38.585Z,997.86
2018-02-03T03:43:38.535Z,997.88
2018-02-03T03:44:38.483Z,997.91
2018-02-03T03:45:38.434Z,997.91
2018-02-03T03:46:38.384Z,997.90
2018-02-03T03:47:38.333Z,997.88
2018-02-03T03:48:38.283Z,997.90
2018-02-03T03:49:38.384Z,997.89
2018-02-03T03:50:38.185Z,997.90
2018-02-03T03:51:38.136Z,997.92
2018-02-03T03:52:38.081Z,997.94
2018-02-03T03:53:38.033Z,997.97
2018-02-03T03:54:37.983Z,997.94
2018-02-03T03:55:37.935Z,997.95
2018-02-03T03:56:37.882Z,997.94
2018-02-03T03:57:37.832Z,997.94
2018-02-03T03:58:37.782Z,997.91
2018-02-03T03:59:37.731Z,997.90
2018-02-03T04:00:37.782Z,997.90
2018-02-03T04:01:37.632Z,997.90
2018-02-03T04:02:37.582Z,997.92
2018-02-03T04:03:37.531Z,997.90
2018-02-03T04:04:37.481Z,997.88
2018-02-03T04:05:37.431Z,997.93
2018-02-03T04:06:37.381Z,997.91
2018-02-03T04:07:37.331Z,997.90
2018-02-03T04:08:37.282Z,997.89
2018-02-03T04:09:37.230Z,997.90
2018-02-03T04:10:37.231Z,997.89
2018-02-03T04:11:37.129Z,997.84
2018-02-03T04:12:37.123Z,997.87
2018-02-03T04:13:37.030Z,997.91
2018-02-03T04:14:36.981Z,997.86
2018-02-03T04:15:36.929Z,997.86
2018-02-03T04:16:36.879Z,997.85
2018-02-03T04:17:36.832Z,997.86
2018-02-03T04:18:36.779Z,997.85
2018-02-03T04:19:36.930Z,997.83
2018-02-03T04:20:36.678Z,997.87
2018-02-03T04:21:36.628Z,997.88
2018-02-03T04:22:36.578Z,997.89
2018-02-03T04:23:36.527Z,997.88
2018-02-03T04:24:36.477Z,997.90
2018-02-03T04:25:36.427Z,997.91
2018-02-03T04:26:36.377Z,997.93
2018-02-03T04:27:36.327Z,997.94
2018-02-03T04:28:36.276Z,997.94
2018-02-03T04:29:36.232Z,997.90
2018-02-03T04:30:36.176Z,997.87
2018-02-03T04:31:36.126Z,997.89
2018-02-03T04:32:36.075Z,997.88
2018-02-03T04:33:36.026Z,997.89
2018-02-03T04:34:35.975Z,997.91
2018-02-03T04:35:35.926Z,997.90
2018-02-03T04:36:35.874Z,997.89
2018-02-03T04:37:35.824Z,997.87
2018-02-03T04:38:35.774Z,997.90
2018-02-03T04:39:35.724Z,997.87
2018-02-03T04:40:35.681Z,997.86
2018-02-03T04:41:35.624Z,997.85
2018-02-03T04:42:35.623Z,997.87
2018-02-03T04:43:35.523Z,997.84
2018-02-03T04:44:35.473Z,997.86
2018-02-03T04:45:35.423Z,997.81
2018-02-03T04:46:35.373Z,997.84
2018-02-03T04:47:35.323Z,997.83
2018-02-03T04:48:35.273Z,997.84
2018-02-03T04:49:35.222Z,997.78
2018-02-03T04:50:35.173Z,997.82
2018-02-03T04:51:35.122Z,997.84
2018-02-03T04:52:35.072Z,997.83
2018-02-03T04:53:35.022Z,997.85
2018-02-03T04:54:34.972Z,997.86
2018-02-03T04:55:34.921Z,997.87
2018-02-03T04:56:34.871Z,997.85
2018-02-03T04:57:34.821Z,997.87
2018-02-03T04:58:34.771Z,997.85
2018-02-03T04:59:34.720Z,997.92
2018-02-03T05:00:34.669Z,997.92
2018-02-03T05:01:34.620Z,997.92
2018-02-03T05:02:34.570Z,997.86
2018-02-03T05:03:34.522Z,997.87
2018-02-03T05:04:34.469Z,997.92
2018-02-03T05:05:34.420Z,997.89
2018-02-03T05:06:34.569Z,997.89
2018-02-03T05:07:34.318Z,997.93
2018-02-03T05:08:34.268Z,997.95
2018-02-03T05:09:34.218Z,997.96
2018-02-03T05:10:34.168Z,997.93
2018-02-03T05:11:34.117Z,997.92
2018-02-03T05:12:34.066Z,997.91
2018-02-03T05:13:34.017Z,997.98
2018-02-03T05:14:33.967Z,997.96
2018-02-03T05:15:33.915Z,997.92
2018-02-03T05:16:33.865Z,997.95
2018-02-03T05:17:33.816Z,997.94
2018-02-03T05:18:33.768Z,997.93
2018-02-03T05:19:33.715Z,997.94
2018-02-03T05:20:33.670Z,997.94
2018-02-03T05:21:33.614Z,997.92
2018-02-03T05:22:33.564Z,997.94
2018-02-03T05:23:33.517Z,997.94
2018-02-03T05:24:33.462Z,997.97
2018-02-03T05:25:33.413Z,997.95
2018-02-03T05:26:33.363Z,997.98
2018-02-03T05:27:33.312Z,997.97
2018-02-03T05:28:33.261Z,997.97
2018-02-03T05:29:33.211Z,998.02
2018-02-03T05:30:33.214Z,998.02
2018-02-03T05:31:33.110Z,998.02
2018-02-03T05:32:33.059Z,998.01
2018-02-03T05:33:33.009Z,998.00
2018-02-03T05:34:33.359Z,997.98
2018-02-03T05:35:33.258Z,997.99
2018-02-03T05:36:33.163Z,998.01
2018-02-03T05:37:33.158Z,997.98
2018-02-03T05:38:33.057Z,998.03
2018-02-03T05:39:32.956Z,998.02
2018-02-03T05:40:32.856Z,998.01
2018-02-03T05:41:32.755Z,998.03
2018-02-03T05:42:32.806Z,998.03
2018-02-03T05:43:32.703Z,998.06
2018-02-03T05:44:32.554Z,998.03
2018-02-03T05:45:32.453Z,998.04
2018-02-03T05:46:32.353Z,998.03
2018-02-03T05:47:32.353Z,998.00
2018-02-03T05:48:32.251Z,998.05
2018-02-03T05:49:32.201Z,998.01
2018-02-03T05:50:32.150Z,998.07
2018-02-03T05:51:32.098Z,998.07
2018-02-03T05:52:32.048Z,998.04
2018-02-03T05:53:31.998Z,998.05
2018-02-03T05:54:31.947Z,998.02
2018-02-03T05:55:31.896Z,998.11
2018-02-03T05:56:31.846Z,998.08
2018-02-03T05:57:31.795Z,998.12
2018-02-03T05:58:31.745Z,998.13
2018-02-03T05:59:31.694Z,998.09
2018-02-03T06:00:31.643Z,998.13
2018-02-03T06:01:31.593Z,998.12
2018-02-03T06:02:31.543Z,998.13
2018-02-03T06:03:31.692Z,998.15
2018-02-03T06:04:31.442Z,998.13
2018-02-03T06:05:31.391Z,998.18
2018-02-03T06:06:31.400Z,998.14
2018-02-03T06:07:31.290Z,998.19
2018-02-03T06:09:31.240Z,998.20
2018-02-03T06:10:31.146Z,998.24
2018-02-03T06:11:31.089Z,998.28
2018-02-03T06:12:31.039Z,998.27
2018-02-03T06:13:30.988Z,998.26
2018-02-03T06:14:30.938Z,998.27
2018-02-03T06:15:30.888Z,998.27
2018-02-03T06:16:30.837Z,998.30
2018-02-03T06:17:30.787Z,998.36
2018-02-03T06:18:30.739Z,998.33
2018-02-03T06:19:30.686Z,998.35
2018-02-03T06:20:30.637Z,998.35
2018-02-03T06:21:30.589Z,998.35
2018-02-03T06:23:30.486Z,998.40
2018-02-03T06:24:30.436Z,998.39
2018-02-03T06:25:30.386Z,998.45
2018-02-03T06:26:30.336Z,998.43
2018-02-03T06:27:30.285Z,998.51
2018-02-03T06:28:30.235Z,998.48
2018-02-03T06:29:30.185Z,998.45
2018-02-03T06:30:30.135Z,998.45
2018-02-03T06:31:30.084Z,998.46
2018-02-03T06:32:30.035Z,998.48
2018-02-03T06:33:29.985Z,998.46
2018-02-03T06:34:29.934Z,998.46
2018-02-03T06:36:29.833Z,998.49
2018-02-03T06:37:29.784Z,998.51
2018-02-03T06:38:29.737Z,998.51
2018-02-03T06:39:29.683Z,998.53
2018-02-03T06:40:29.633Z,998.50
2018-02-03T06:41:29.583Z,998.55
2018-02-03T06:42:29.533Z,998.50
2018-02-03T06:43:29.481Z,998.53
2018-02-03T06:44:29.431Z,998.52
2018-02-03T06:45:29.382Z,998.51
2018-02-03T06:46:29.332Z,998.52
2018-02-03T06:47:29.281Z,998.54
2018-02-03T06:48:29.230Z,998.54
2018-02-03T06:49:29.181Z,998.56
2018-02-03T06:50:29.130Z,998.56
2018-02-03T06:51:29.282Z,998.56
2018-02-03T06:52:29.030Z,998.61
2018-02-03T06:53:28.979Z,998.61
2018-02-03T06:54:28.929Z,998.63
2018-02-03T06:55:28.878Z,998.64
2018-02-03T06:56:28.833Z,998.69
2018-02-03T06:57:28.780Z,998.68
2018-02-03T06:58:28.727Z,998.69
2018-02-03T06:59:28.677Z,998.71
2018-02-03T07:00:28.626Z,998.76
2018-02-03T07:01:28.576Z,998.77
2018-02-03T07:02:28.526Z,998.76
2018-02-03T07:03:28.475Z,998.74
2018-02-03T07:04:28.425Z,998.72
2018-02-03T07:05:28.378Z,998.75
2018-02-03T07:06:28.334Z,998.79
2018-02-03T07:07:28.273Z,998.76
2018-02-03T07:08:28.223Z,998.81
2018-02-03T07:09:28.173Z,998.78
2018-02-03T07:10:28.123Z,998.80
2018-02-03T07:11:28.072Z,998.81
2018-02-03T07:12:28.021Z,998.82
2018-02-03T07:13:27.972Z,998.80
2018-02-03T07:14:27.922Z,998.80
2018-02-03T07:15:27.870Z,998.82
2018-02-03T07:16:27.820Z,998.82
2018-02-03T07:17:27.770Z,998.80
2018-02-03T07:18:27.719Z,998.77
2018-02-03T07:19:27.667Z,998.75
2018-02-03T07:20:27.618Z,998.72
2018-02-03T07:21:27.567Z,998.75
2018-02-03T07:22:27.517Z,998.75
2018-02-03T07:23:27.467Z,998.74
2018-02-03T07:24:27.416Z,998.73
2018-02-03T07:25:27.366Z,998.71
2018-02-03T07:26:27.316Z,998.72
2018-02-03T07:27:27.265Z,998.77
2018-02-03T07:28:27.221Z,998.76
2018-02-03T07:29:27.165Z,998.77
2018-02-03T07:30:27.115Z,998.82
2018-02-03T07:31:27.064Z,998.85
2018-02-03T07:32:27.014Z,998.81
2018-02-03T07:33:26.964Z,998.86
2018-02-03T07:34:26.914Z,998.89
2018-02-03T07:35:26.862Z,998.90
2018-02-03T07:36:26.812Z,998.87
2018-02-03T07:37:26.763Z,998.92
2018-02-03T07:38:26.712Z,998.91
2018-02-03T07:39:26.710Z,998.84
2018-02-03T07:40:26.613Z,998.89
2018-02-03T07:41:26.561Z,998.90
2018-02-03T07:42:26.514Z,998.92
2018-02-03T07:44:26.411Z,998.93
2018-02-03T07:45:26.361Z,998.90
2018-02-03T07:46:26.311Z,998.94
2018-02-03T07:47:26.260Z,998.99
2018-02-03T07:48:26.210Z,999.01
2018-02-03T07:49:26.160Z,999.02
2018-02-03T07:50:26.110Z,998.99
2018-02-03T07:51:26.059Z,998.95
2018-02-03T07:52:26.009Z,999.01
2018-02-03T07:53:25.960Z,999.00
2018-02-03T07:54:25.910Z,999.01
2018-02-03T07:55:25.859Z,999.02
2018-02-03T07:56:25.809Z,998.99
2018-02-03T07:57:25.759Z,998.99
2018-02-03T07:58:25.710Z,999.00
2018-02-03T07:59:25.659Z,999.03
2018-02-03T08:00:25.609Z,999.02
2018-02-03T08:01:25.559Z,999.01
2018-02-03T08:02:25.560Z,999.05
2018-02-03T08:03:25.461Z,999.06
2018-02-03T08:04:25.410Z,999.06
2018-02-03T08:05:25.359Z,999.06
2018-02-03T08:06:25.310Z,999.08
2018-02-03T08:07:25.260Z,999.08
2018-02-03T08:08:25.210Z,999.11
2018-02-03T08:09:25.161Z,999.11
2018-02-03T08:10:25.111Z,999.10
2018-02-03T08:11:25.060Z,999.10
2018-02-03T08:12:25.010Z,999.11
2018-02-03T08:13:24.961Z,999.08
2018-02-03T08:14:24.911Z,999.12
2018-02-03T08:15:24.860Z,999.09
2018-02-03T08:16:24.811Z,999.11
2018-02-03T08:17:24.762Z,999.11
2018-02-03T08:18:24.712Z,999.13
2018-02-03T08:19:24.661Z,999.14
2018-02-03T08:20:24.612Z,999.12
2018-02-03T08:21:24.562Z,999.13
2018-02-03T08:22:24.513Z,999.12
2018-02-03T08:23:24.507Z,999.14
2018-02-03T08:24:24.414Z,999.14
2018-02-03T08:25:24.363Z,999.09
2018-02-03T08:26:24.313Z,999.10
2018-02-03T08:27:24.263Z,999.12
2018-02-03T08:28:24.213Z,999.11
2018-02-03T08:29:24.364Z,999.13
2018-02-03T08:30:24.114Z,999.10
2018-02-03T08:31:24.067Z,999.11
2018-02-03T08:32:24.014Z,999.12
2018-02-03T08:33:23.965Z,999.15
2018-02-03T08:34:23.923Z,999.12
2018-02-03T08:35:23.864Z,999.11
2018-02-03T08:36:24.015Z,999.11
2018-02-03T08:37:23.765Z,999.07
2018-02-03T08:38:23.715Z,999.05
2018-02-03T08:39:23.669Z,999.06
2018-02-03T08:40:23.620Z,999.10
2018-02-03T08:41:23.565Z,999.13
2018-02-03T08:42:23.515Z,999.15
2018-02-03T08:43:23.464Z,999.12
2018-02-03T08:44:23.414Z,999.15
2018-02-03T08:45:23.365Z,999.15
2018-02-03T08:46:23.315Z,999.15
2018-02-03T08:47:23.264Z,999.15
2018-02-03T08:48:23.264Z,999.14
2018-02-03T08:49:23.164Z,999.11
2018-02-03T08:50:23.114Z,999.15
2018-02-03T08:51:23.062Z,999.17
2018-02-03T08:52:23.012Z,999.16
2018-02-03T08:53:23.363Z,999.14
2018-02-03T08:54:23.362Z,999.11
2018-02-03T08:55:23.262Z,999.13
2018-02-03T08:56:23.211Z,999.16
2018-02-03T08:57:23.061Z,999.22
2018-02-03T08:58:22.961Z,999.22
2018-02-03T08:59:22.960Z,999.22
2018-02-03T09:00:22.859Z,999.22
2018-02-03T09:01:22.759Z,999.32
2018-02-03T09:02:22.609Z,999.27
2018-02-03T09:03:22.508Z,999.30
2018-02-03T09:04:22.558Z,999.28
2018-02-03T09:05:22.408Z,999.29
2018-02-03T09:06:22.307Z,999.29
2018-02-03T09:07:22.261Z,999.24
2018-02-03T09:08:22.206Z,999.29
2018-02-03T09:09:22.156Z,999.31
2018-02-03T09:10:22.106Z,999.31
2018-02-03T09:11:22.055Z,999.36
2018-02-03T09:12:22.205Z,999.35
2018-02-03T09:13:21.955Z,999.36
2018-02-03T09:14:21.906Z,999.41
2018-02-03T09:15:21.855Z,999.41
2018-02-03T09:16:21.805Z,999.38
2018-02-03T09:17:21.755Z,999.34
2018-02-03T09:18:21.708Z,999.40
2018-02-03T09:19:21.660Z,999.36
2018-02-03T09:20:21.604Z,999.34
2018-02-03T09:21:21.556Z,999.36
2018-02-03T09:22:21.505Z,999.39
2018-02-03T09:23:21.463Z,999.41
2018-02-03T09:24:21.405Z,999.42
2018-02-03T09:25:21.355Z,999.43
2018-02-03T09:26:21.309Z,999.39
2018-02-03T09:27:21.256Z,999.40
2018-02-03T09:28:21.206Z,999.41
2018-02-03T09:29:21.156Z,999.41
2018-02-03T09:30:21.106Z,999.43
2018-02-03T09:31:21.056Z,999.44
2018-02-03T09:32:21.012Z,999.45
2018-02-03T09:33:20.957Z,999.46
2018-02-03T09:34:20.907Z,999.45
2018-02-03T09:35:20.857Z,999.43
2018-02-03T09:36:20.807Z,999.50
2018-02-03T09:37:20.758Z,999.51
2018-02-03T09:38:20.708Z,999.49
2018-02-03T09:39:20.707Z,999.53
2018-02-03T09:40:20.611Z,999.51
2018-02-03T09:41:20.558Z,999.50
2018-02-03T09:42:20.508Z,999.53
2018-02-03T09:43:20.458Z,999.49
2018-02-03T09:44:20.413Z,999.52
2018-02-03T09:45:20.359Z,999.52
2018-02-03T09:46:20.310Z,999.48
2018-02-03T09:47:20.259Z,999.46
2018-02-03T09:48:20.209Z,999.47
2018-02-03T09:49:20.160Z,999.48
2018-02-03T09:50:20.141Z,999.46
2018-02-03T09:51:20.059Z,999.47
2018-02-03T09:52:20.010Z,999.52
2018-02-03T09:53:19.960Z,999.50
2018-02-03T09:54:19.910Z,999.54
2018-02-03T09:55:19.860Z,999.50
2018-02-03T09:56:19.832Z,999.56
2018-02-03T09:57:19.761Z,999.58
2018-02-03T09:58:19.711Z,999.53
2018-02-03T09:59:19.660Z,999.56
2018-02-03T10:00:19.611Z,999.54
2018-02-03T10:01:19.568Z,999.55
2018-02-03T10:02:19.511Z,999.52
2018-02-03T10:03:19.461Z,999.54
2018-02-03T10:04:19.411Z,999.52
2018-02-03T10:05:19.361Z,999.50
2018-02-03T10:06:19.312Z,999.52
2018-02-03T10:07:19.262Z,999.49
2018-02-03T10:08:19.212Z,999.50
2018-02-03T10:09:19.162Z,999.49
2018-02-03T10:10:19.114Z,999.48
2018-02-03T10:11:19.063Z,999.47
2018-02-03T10:12:19.014Z,999.52
2018-02-03T10:13:18.964Z,999.52
2018-02-03T10:14:18.915Z,999.53
2018-02-03T10:15:18.864Z,999.54
2018-02-03T10:16:18.815Z,999.52
2018-02-03T10:17:18.765Z,999.56
2018-02-03T10:18:18.716Z,999.52
2018-02-03T10:19:18.666Z,999.52
2018-02-03T10:20:18.617Z,999.47
2018-02-03T10:21:18.573Z,999.50
2018-02-03T10:22:18.518Z,999.47
2018-02-03T10:23:18.470Z,999.49
2018-02-03T10:24:18.417Z,999.51
2018-02-03T10:25:18.368Z,999.55
2018-02-03T10:26:18.319Z,999.49
2018-02-03T10:27:18.272Z,999.53
2018-02-03T10:28:18.218Z,999.52
2018-02-03T10:29:18.169Z,999.54
2018-02-03T10:30:18.119Z,999.49
2018-02-03T10:31:18.068Z,999.52
2018-02-03T10:32:18.017Z,999.51
2018-02-03T10:33:18.069Z,999.54
2018-02-03T10:34:17.919Z,999.48
2018-02-03T10:35:17.868Z,999.52
2018-02-03T10:36:17.818Z,999.49
2018-02-03T10:37:17.769Z,999.46
2018-02-03T10:38:17.719Z,999.44
2018-02-03T10:39:17.669Z,999.55
2018-02-03T10:40:17.619Z,999.54
2018-02-03T10:41:17.569Z,999.52
2018-02-03T10:42:17.519Z,999.54
2018-02-03T10:43:17.467Z,999.48
2018-02-03T10:44:17.419Z,999.50
2018-02-03T10:45:17.369Z,999.48
2018-02-03T10:46:17.319Z,999.49
2018-02-03T10:47:17.269Z,999.51
2018-02-03T10:48:17.225Z,999.54
2018-02-03T10:49:17.169Z,999.50
2018-02-03T10:50:17.119Z,999.53
2018-02-03T10:51:17.067Z,999.53
2018-02-03T10:52:17.018Z,999.51
2018-02-03T10:53:16.968Z,999.53
2018-02-03T10:54:16.919Z,999.53
2018-02-03T10:55:16.868Z,999.53
2018-02-03T10:56:16.818Z,999.54
2018-02-03T10:57:16.768Z,999.57
2018-02-03T10:58:16.719Z,999.57
2018-02-03T10:59:16.674Z,999.57
2018-02-03T11:00:16.619Z,999.57
2018-02-03T11:01:16.569Z,999.54
2018-02-03T11:02:16.619Z,999.55
2018-02-03T11:03:16.468Z,999.54
2018-02-03T11:04:16.418Z,999.49
2018-02-03T11:05:16.373Z,999.54
2018-02-03T11:06:16.319Z,999.51
2018-02-03T11:07:16.269Z,999.54
2018-02-03T11:08:16.226Z,999.55
2018-02-03T11:09:16.170Z,999.56
2018-02-03T11:10:16.120Z,999.51
2018-02-03T11:11:16.069Z,999.58
2018-02-03T11:12:16.020Z,999.57
2018-02-03T11:13:15.970Z,999.59
2018-02-03T11:14:15.921Z,999.61
2018-02-03T11:15:15.870Z,999.58
2018-02-03T11:16:15.821Z,999.61
2018-02-03T11:17:15.773Z,999.58
2018-02-03T11:18:15.722Z,999.61
2018-02-03T11:19:15.672Z,999.62
2018-02-03T11:20:15.621Z,999.64
2018-02-03T11:21:15.572Z,999.63
2018-02-03T11:22:15.523Z,999.63
2018-02-03T11:23:15.472Z,999.63
2018-02-03T11:24:15.423Z,999.66
2018-02-03T11:25:15.423Z,999.71
2018-02-03T11:26:15.324Z,999.73
2018-02-03T11:27:15.273Z,999.67
2018-02-03T11:28:15.224Z,999.71
2018-02-03T11:29:15.174Z,999.71
2018-02-03T11:30:15.124Z,999.71
2018-02-03T11:31:15.074Z,999.77
2018-02-03T11:32:15.024Z,999.74
2018-02-03T11:33:14.974Z,999.77
2018-02-03T11:34:14.924Z,999.76
2018-02-03T11:35:14.873Z,999.78
2018-02-03T11:36:14.824Z,999.78
2018-02-03T11:37:14.774Z,999.79
2018-02-03T11:38:14.724Z,999.74
2018-02-03T11:39:14.721Z,999.77
2018-02-03T11:40:14.623Z,999.78
2018-02-03T11:41:14.574Z,999.73
2018-02-03T11:42:14.524Z,999.77
2018-02-03T11:43:14.473Z,999.77
2018-02-03T11:44:14.426Z,999.76
2018-02-03T11:45:14.374Z,999.76
2018-02-03T11:46:14.324Z,999.78
2018-02-03T11:47:14.273Z,999.76
2018-02-03T11:48:14.224Z,999.81
2018-02-03T11:49:14.175Z,999.83
2018-02-03T11:50:14.125Z,999.78
2018-02-03T11:51:14.085Z,999.82
2018-02-03T11:52:14.025Z,999.81
2018-02-03T11:53:13.975Z,999.76
2018-02-03T11:54:13.926Z,999.80
2018-02-03T11:55:13.878Z,999.80
2018-02-03T11:56:13.831Z,999.74
2018-02-03T11:57:13.777Z,999.75
2018-02-03T11:58:13.734Z,999.74
2018-02-03T11:59:13.677Z,999.77
2018-02-03T12:00:13.627Z,999.74
2018-02-03T12:01:13.628Z,999.79
2018-02-03T12:02:13.529Z,999.77
2018-02-03T12:03:13.479Z,999.73
2018-02-03T12:04:13.430Z,999.73
2018-02-03T12:05:13.380Z,999.74
2018-02-03T12:06:13.330Z,999.74
2018-02-03T12:07:13.330Z,999.71
2018-02-03T12:08:13.230Z,999.71
2018-02-03T12:09:13.184Z,999.72
2018-02-03T12:10:13.132Z,999.74
2018-02-03T12:11:13.532Z,999.74
2018-02-03T12:12:13.432Z,999.70
2018-02-03T12:13:13.433Z,999.75
2018-02-03T12:14:13.334Z,999.68
2018-02-03T12:15:13.182Z,999.70
2018-02-03T12:16:13.083Z,999.70
2018-02-03T12:17:13.083Z,999.67
2018-02-03T12:18:12.984Z,999.68
2018-02-03T12:19:12.887Z,999.65
2018-02-03T12:20:12.784Z,999.66
2018-02-03T12:21:12.834Z,999.63
2018-02-03T12:22:12.734Z,999.63
2018-02-03T12:23:12.583Z,999.64
2018-02-03T12:24:12.483Z,999.66
2018-02-03T12:25:12.384Z,999.66
2018-02-03T12:26:12.334Z,999.66
2018-02-03T12:27:12.283Z,999.67
2018-02-03T12:28:12.233Z,999.67
2018-02-03T12:29:12.184Z,999.70
2018-02-03T12:30:12.133Z,999.64
2018-02-03T12:31:12.082Z,999.67
2018-02-03T12:32:12.033Z,999.68